地図

経路データ

SID SEASON NUMBER BASIN SUBBASIN NAME ISO_TIME NATURE LAT LON WMO_WIND WMO_PRES WMO_AGENCY TRACK_TYPE DIST2LAND LANDFALL IFLAG USA_AGENCY USA_ATCF_ID USA_LAT USA_LON USA_RECORD USA_STATUS USA_WIND USA_PRES USA_SSHS USA_R34_NE USA_R34_SE USA_R34_SW USA_R34_NW USA_R50_NE USA_R50_SE USA_R50_SW USA_R50_NW USA_R64_NE USA_R64_SE USA_R64_SW USA_R64_NW USA_POCI USA_ROCI USA_RMW USA_EYE TOKYO_LAT TOKYO_LON TOKYO_GRADE TOKYO_WIND TOKYO_PRES TOKYO_R50_DIR TOKYO_R50_LONG TOKYO_R50_SHORT TOKYO_R30_DIR TOKYO_R30_LONG TOKYO_R30_SHORT TOKYO_LAND CMA_LAT CMA_LON CMA_CAT CMA_WIND CMA_PRES HKO_LAT HKO_LON HKO_CAT HKO_WIND HKO_PRES NEWDELHI_LAT NEWDELHI_LON NEWDELHI_GRADE NEWDELHI_WIND NEWDELHI_PRES NEWDELHI_CI NEWDELHI_DP NEWDELHI_POCI REUNION_LAT REUNION_LON REUNION_TYPE REUNION_WIND REUNION_PRES REUNION_TNUM REUNION_CI REUNION_RMW REUNION_R34_NE REUNION_R34_SE REUNION_R34_SW REUNION_R34_NW REUNION_R50_NE REUNION_R50_SE REUNION_R50_SW REUNION_R50_NW REUNION_R64_NE REUNION_R64_SE REUNION_R64_SW REUNION_R64_NW BOM_LAT BOM_LON BOM_TYPE BOM_WIND BOM_PRES BOM_TNUM BOM_CI BOM_RMW BOM_R34_NE BOM_R34_SE BOM_R34_SW BOM_R34_NW BOM_R50_NE BOM_R50_SE BOM_R50_SW BOM_R50_NW BOM_R64_NE BOM_R64_SE BOM_R64_SW BOM_R64_NW BOM_ROCI BOM_POCI BOM_EYE BOM_POS_METHOD BOM_PRES_METHOD NADI_LAT NADI_LON NADI_CAT NADI_WIND NADI_PRES WELLINGTON_LAT WELLINGTON_LON WELLINGTON_WIND WELLINGTON_PRES DS824_LAT DS824_LON DS824_STAGE DS824_WIND DS824_PRES TD9636_LAT TD9636_LON TD9636_STAGE TD9636_WIND TD9636_PRES TD9635_LAT TD9635_LON TD9635_WIND TD9635_PRES TD9635_ROCI NEUMANN_LAT NEUMANN_LON NEUMANN_CLASS NEUMANN_WIND NEUMANN_PRES MLC_LAT MLC_LON MLC_CLASS MLC_WIND MLC_PRES USA_GUST BOM_GUST BOM_GUST_PER REUNION_GUST REUNION_GUST_PER USA_SEAHGT USA_SEARAD_NE USA_SEARAD_SE USA_SEARAD_SW USA_SEARAD_NW STORM_SPEED STORM_DIR
1884191N21089 1884 18 NI BB NOT_NAMED 1884-07-09 00:00:00 TS 20.6000 88.6000 main 112 111 _________O____ -1 20.6000 88.6000 TC 45 2 270
1884191N21089 1884 18 NI BB NOT_NAMED 1884-07-09 03:00:00 TS 20.6000 88.4983 main 111 111 _________PO___ -1 20.6000 88.4475 TC 45 20.6000 88.6000 3 2 270
1884191N21089 1884 18 NI BB NOT_NAMED 1884-07-09 06:00:00 TS 20.5989 88.3557 main 111 111 _________OP___ -1 20.6000 88.3000 TC 45 20.5972 88.4391 3 3 270
1884191N21089 1884 18 NI BB NOT_NAMED 1884-07-09 09:00:00 TS 20.5980 88.2111 main 111 111 _________PP___ -1 20.6000 88.1575 TC 45 20.5954 88.2826 3 3 270
1884191N21089 1884 18 NI BB NOT_NAMED 1884-07-09 12:00:00 TS 20.5980 88.0674 main 112 94 _________OP___ -1 20.6000 88.0000 TC 45 20.5959 88.1348 3 3 270
1884191N21089 1884 18 NI BB NOT_NAMED 1884-07-09 15:00:00 TS 20.5963 87.9000 main 94 73 _________PO___ -1 20.5925 87.8000 TC 41 20.6000 88.0000 3 3 271
1884191N21089 1884 18 NI BB NOT_NAMED 1884-07-09 18:00:00 TS 20.6046 87.7383 main 73 63 _________OP___ -1 20.6000 87.6000 TC 37 20.6092 87.8767 3 3 278
1884191N21089 1884 18 NI BB NOT_NAMED 1884-07-09 21:00:00 TS 20.6345 87.6136 main 63 41 _________PP___ -1 20.6423 87.4875 TC 33 20.6267 87.7397 3 3 284
1884191N21089 1884 18 NI BB NOT_NAMED 1884-07-10 00:00:00 TS 20.6779 87.4289 main 41 10 _________OP___ -1 20.7000 87.3000 TC 30 20.6559 87.5579 3 5 280
1884191N21089 1884 18 NI BB NOT_NAMED 1884-07-10 03:00:00 TS 20.7213 87.0975 main 10 0 _________PO___ -1 20.7427 86.8949 TC 30 20.7000 87.3000 1 7 278
1884191N21089 1884 18 NI BB NOT_NAMED 1884-07-10 06:00:00 TS 20.7805 86.6646 main 0 0 _________OP___ -1 20.8000 86.4000 TC 30 20.7610 86.9292 1 8 280
1884191N21089 1884 18 NI BB NOT_NAMED 1884-07-10 09:00:00 TS 20.8677 86.2164 main 0 0 _________PP___ -1 20.8999 85.9501 TC 30 20.8355 86.4827 1 9 282
1884191N21089 1884 18 NI BB NOT_NAMED 1884-07-10 12:00:00 TS 20.9586 85.7474 main 0 0 _________OP___ -1 21.0000 85.5000 TC 30 20.9172 85.9948 1 9 280
1884191N21089 1884 18 NI BB NOT_NAMED 1884-07-10 15:00:00 TS 21.0249 85.2749 main 0 0 _________PO___ -1 21.0499 85.0498 TC 30 21.0000 85.5000 1 9 278
1884191N21089 1884 18 NI BB NOT_NAMED 1884-07-10 18:00:00 TS 21.0874 84.8189 main 0 0 _________OP___ -1 21.1000 84.6000 TC 30 21.0749 85.0377 1 9 280
1884191N21089 1884 18 NI BB NOT_NAMED 1884-07-10 21:00:00 TS 21.1749 84.3600 main 0 0 _________PP___ -1 21.1999 84.1426 TC 30 21.1499 84.5774 1 9 282
1884191N21089 1884 18 NI BB NOT_NAMED 1884-07-11 00:00:00 TS 21.2625 83.9142 main 0 0 _________OP___ -1 21.3000 83.7000 TC 30 21.2249 84.1284 1 8 281
1884191N21089 1884 18 NI BB NOT_NAMED 1884-07-11 03:00:00 TS 21.3249 83.4924 main 0 0 _________PO___ -1 21.3499 83.2849 TC 30 21.3000 83.7000 1 8 279
1884191N21089 1884 18 NI BB NOT_NAMED 1884-07-11 06:00:00 TS 21.3851 83.1056 main 0 0 _________OP___ -1 21.4000 82.9000 TC 30 21.3703 83.3113 1 7 282
1884191N21089 1884 18 NI BB NOT_NAMED 1884-07-11 09:00:00 TS 21.4670 82.7498 main 0 0 _________PP___ -1 21.4923 82.5575 TC 30 21.4416 82.9421 1 7 285
1884191N21089 1884 18 NI BB NOT_NAMED 1884-07-11 12:00:00 TS 21.5586 82.3884 main 0 0 _________OP___ -1 21.6000 82.2000 TC 30 21.5172 82.5769 1 7 284
1884191N21089 1884 18 NI BB NOT_NAMED 1884-07-11 15:00:00 TS 21.6500 81.9787 main 0 0 _________PO___ -1 21.7000 81.7575 TC 30 21.6000 82.2000 1 8 283
1884191N21089 1884 18 NI BB NOT_NAMED 1884-07-11 18:00:00 TS 21.7420 81.5567 main 0 0 _________OP___ -1 21.8000 81.3000 TC 30 21.6841 81.8133 1 8 284
1884191N21089 1884 18 NI BB NOT_NAMED 1884-07-11 21:00:00 TS 21.8343 81.1658 main 0 0 _________PP___ -1 21.8921 80.9223 TC 30 21.7765 81.4093 1 8 285
1884191N21089 1884 18 NI BB NOT_NAMED 1884-07-12 00:00:00 TS 21.9404 80.7378 main 0 0 _________OP___ -1 22.0000 80.5000 TC 30 21.8807 80.9757 1 9 285
1884191N21089 1884 18 NI BB NOT_NAMED 1884-07-12 03:00:00 TS 22.0713 80.2113 main 0 0 _________PO___ -1 22.1427 79.9226 TC 30 22.0000 80.5000 1 11 285
1884191N21089 1884 18 NI BB NOT_NAMED 1884-07-12 06:00:00 TS 22.2157 79.6380 main 0 0 _________OP___ -1 22.3000 79.3000 TC 30 22.1314 79.9761 1 11 286
1884191N21089 1884 18 NI BB NOT_NAMED 1884-07-12 09:00:00 TS 22.3634 79.0835 main 0 0 _________PP___ -1 22.4496 78.7573 TC 30 22.2772 79.4097 1 11 286
1884191N21089 1884 18 NI BB NOT_NAMED 1884-07-12 12:00:00 TS 22.5172 78.5067 main 0 0 _________OP___ -1 22.6000 78.2000 TC 30 22.4344 78.8134 1 12 285
1884191N21089 1884 18 NI AS NOT_NAMED 1884-07-12 15:00:00 TS 22.6712 77.8787 main 0 0 _________PO___ -1 22.7425 77.5573 TC 30 22.6000 78.2000 1 12 285
1884191N21089 1884 18 NI AS NOT_NAMED 1884-07-12 18:00:00 TS 22.8315 77.2485 main 0 0 _________OP___ -1 22.9000 76.9000 TC 30 22.7631 77.5970 1 12 287
1884191N21089 1884 18 NI AS NOT_NAMED 1884-07-12 21:00:00 TS 23.0130 76.6433 main 0 0 _________PP___ -1 23.0920 76.3073 TC 30 22.9340 76.9792 1 12 288
1884191N21089 1884 18 NI AS NOT_NAMED 1884-07-13 00:00:00 TS 23.2065 76.0234 main 0 0 _________OP___ -1 23.3000 75.7000 TC 30 23.1129 76.3469 1 12 288
1884191N21089 1884 18 NI AS NOT_NAMED 1884-07-13 03:00:00 TS 23.4000 75.3537 main 0 0 _________PO___ -1 23.5000 75.0074 TC 30 23.3000 75.7000 1 13 287
1884191N21089 1884 18 NI AS NOT_NAMED 1884-07-13 06:00:00 TS 23.5921 74.6674 main 0 0 _________OP___ -1 23.7000 74.3000 TC 30 23.4842 75.0347 1 13 287
1884191N21089 1884 18 NI AS NOT_NAMED 1884-07-13 09:00:00 TS 23.7845 73.9994 main 0 0 _________PP___ -1 23.8921 73.6422 TC 30 23.6769 74.3566 1 13 288
1884191N21089 1884 18 NI AS NOT_NAMED 1884-07-13 12:00:00 TS 23.9905 73.3376 main 0 0 _________OP___ -1 24.1000 73.0000 TC 30 23.8811 73.6752 1 13 290
1884191N21089 1884 18 NI AS NOT_NAMED 1884-07-13 15:00:00 TS 24.2211 72.6749 main 0 0 _________PO___ -1 24.3422 72.3499 TC 30 24.1000 73.0000 1 12 292
1884191N21089 1884 18 NI AS NOT_NAMED 1884-07-13 18:00:00 TS 24.4489 72.0647 main 0 0 _________OP___ -1 24.6000 71.7000 TC 30 24.3356 72.3382 1 12 293
1884191N21089 1884 18 NI AS NOT_NAMED 1884-07-13 21:00:00 TS 24.6918 71.4326 main 0 0 _________PP___ -1 24.8531 71.0505 TC 30 24.5843 71.6873 1 12 293
1884191N21089 1884 18 NI AS NOT_NAMED 1884-07-14 00:00:00 TS 24.9273 70.8285 main 0 0 _________OP___ -1 25.1000 70.4000 TC 30 24.8409 71.0428 1 10 294
1884191N21089 1884 18 NI AS NOT_NAMED 1884-07-14 03:00:00 NR 25.1000 70.4000 main 0 __________O___ -1 TC 25.1000 70.4000 1 9 294

IBTrACS Databaseについて

本データベースは、米国NOAAが公開する1842年以降の世界の熱帯低気圧のベストトラックデータアーカイブInternational Best Track Archive for Climate Stewardship (IBTrACS)を、ウェブで閲覧しやすい形式に変換したものです。

最終更新日:2021-11-26